Schneifelwetter: Wetterstation Hallschlag, 537 m . NN
Wetterdaten: Sonntag, 21.08.2011
Datum Zeit Temp. A. Feuchte A. Luftdruck Regen Wind Richtung Richtung Sonnenschein Helligkeit T Regen Taupunkt Windchill
21.08.2011 00:09 10,1 C 83 % 1019 hPa 0,0 l/m 0,0 km/h (0 Bft) S 175 0 min 0 lux 0 min 7,3 C 10,1 C
21.08.2011 00:24 9,9 C 84 % 1019 hPa 0,0 l/m 0,0 km/h (0 Bft) S 175 0 min 0 lux 0 min 7,3 C 9,9 C
21.08.2011 00:39 9,7 C 84 % 1019 hPa 0,0 l/m 0,0 km/h (0 Bft) S 175 0 min 0 lux 0 min 7,1 C 9,7 C
21.08.2011 00:54 9,6 C 84 % 1018 hPa 0,0 l/m 0,0 km/h (0 Bft) S 175 0 min 0 lux 0 min 7,0 C 9,6 C
21.08.2011 01:09 9,6 C 85 % 1018 hPa 0,0 l/m 0,0 km/h (0 Bft) S 175 0 min 0 lux 0 min 7,2 C 9,6 C
21.08.2011 01:24 9,6 C 86 % 1018 hPa 0,0 l/m 0,0 km/h (0 Bft) S 175 0 min 0 lux 0 min 7,4 C 9,6 C
21.08.2011 01:39 9,4 C 86 % 1018 hPa 0,0 l/m 0,0 km/h (0 Bft) S 175 0 min 0 lux 0 min 7,2 C 9,4 C
21.08.2011 01:54 9,4 C 86 % 1018 hPa 0,0 l/m 0,0 km/h (0 Bft) S 175 0 min 0 lux 0 min 7,2 C 9,4 C
21.08.2011 02:09 9,4 C 86 % 1018 hPa 0,0 l/m 0,0 km/h (0 Bft) S 175 0 min 0 lux 0 min 7,2 C 9,4 C
21.08.2011 02:24 9,4 C 87 % 1018 hPa 0,0 l/m 0,0 km/h (0 Bft) S 175 0 min 0 lux 0 min 7,3 C 9,4 C
21.08.2011 02:39 9,6 C 88 % 1018 hPa 0,0 l/m 0,0 km/h (0 Bft) S 175 0 min 0 lux 0 min 7,7 C 9,6 C
21.08.2011 02:54 9,7 C 88 % 1018 hPa 0,0 l/m 0,0 km/h (0 Bft) S 175 0 min 0 lux 0 min 7,8 C 9,7 C
21.08.2011 03:09 9,8 C 88 % 1017 hPa 0,0 l/m 0,0 km/h (0 Bft) S 175 0 min 0 lux 0 min 7,9 C 9,8 C
21.08.2011 03:24 10,0 C 88 % 1017 hPa 0,0 l/m 0,0 km/h (0 Bft) S 175 0 min 0 lux 0 min 8,1 C 10,0 C
21.08.2011 03:39 10,1 C 88 % 1017 hPa 0,0 l/m 0,0 km/h (0 Bft) S 175 0 min 0 lux 0 min 8,2 C 10,1 C
21.08.2011 03:54 10,2 C 88 % 1017 hPa 0,0 l/m 0,0 km/h (0 Bft) S 175 0 min 0 lux 0 min 8,3 C 10,2 C
21.08.2011 04:09 10,6 C 89 % 1016 hPa 0,0 l/m 0,0 km/h (0 Bft) S 175 0 min 0 lux 0 min 8,9 C 10,6 C
21.08.2011 04:24 10,8 C 88 % 1016 hPa 0,0 l/m 3,9 km/h (1 Bft) S 180 0 min 0 lux 0 min 8,9 C 10,8 C
21.08.2011 04:39 10,7 C 88 % 1016 hPa 0,0 l/m 1,0 km/h (0 Bft) S 175 0 min 0 lux 0 min 8,8 C 10,7 C
21.08.2011 04:54 10,7 C 88 % 1017 hPa 0,0 l/m 0,6 km/h (0 Bft) S 175 0 min 0 lux 0 min 8,8 C 10,7 C
21.08.2011 05:09 10,8 C 89 % 1016 hPa 0,0 l/m 4,1 km/h (1 Bft) S 175 0 min 0 lux 0 min 9,1 C 10,8 C
21.08.2011 05:24 10,8 C 89 % 1016 hPa 0,0 l/m 4,3 km/h (1 Bft) SW45 225 0 min 0 lux 0 min 9,1 C 10,8 C
21.08.2011 05:39 11,0 C 89 % 1016 hPa 0,0 l/m 0,7 km/h (0 Bft) W-NW 285 0 min 0 lux 0 min 9,3 C 11,0 C
21.08.2011 05:54 11,4 C 90 % 1016 hPa 0,0 l/m 0,4 km/h (0 Bft) W-NW 285 0 min 0 lux 0 min 9,8 C 11,4 C
21.08.2011 06:09 11,7 C 90 % 1017 hPa 0,0 l/m 0,0 km/h (0 Bft) W-NW 285 0 min 0 lux 0 min 10,1 C 11,7 C
21.08.2011 06:24 12,0 C 90 % 1017 hPa 0,0 l/m 0,0 km/h (0 Bft) W-NW 285 0 min 159 lux 0 min 10,4 C 12,0 C
21.08.2011 06:39 12,8 C 91 % 1017 hPa 0,0 l/m 0,0 km/h (0 Bft) W-NW 285 0 min 476 lux 0 min 11,4 C 12,8 C
21.08.2011 06:54 13,2 C 91 % 1017 hPa 0,0 l/m 0,6 km/h (0 Bft) W-NW 285 0 min 1,83 klux 0 min 11,8 C 13,2 C
21.08.2011 07:09 13,6 C 91 % 1017 hPa 0,0 l/m 0,3 km/h (0 Bft) W-NW 285 0 min 2,19 klux 0 min 12,2 C 13,6 C
21.08.2011 07:24 14,4 C 91 % 1017 hPa 0,0 l/m 7,0 km/h (2 Bft) W-NW 285 0 min 1,80 klux 0 min 12,9 C 14,1 C
21.08.2011 07:39 15,0 C 92 % 1017 hPa 0,0 l/m 13,8 km/h (3 Bft) W22.5 270 0 min 3,28 klux 0 min 13,7 C 11,6 C
21.08.2011 07:54 15,4 C 92 % 1017 hPa 0,0 l/m 8,4 km/h (2 Bft) W-SW 245 0 min 5,26 klux 0 min 14,1 C 14,3 C
21.08.2011 08:09 16,2 C 92 % 1017 hPa 0,0 l/m 15,0 km/h (3 Bft) W22.5 260 0 min 6,39 klux 0 min 14,9 C 12,6 C
21.08.2011 08:24 16,7 C 91 % 1017 hPa 0,0 l/m 11,5 km/h (2 Bft) W-SW22.5 250 0 min 8,91 klux 0 min 15,2 C 14,4 C
21.08.2011 08:39 17,2 C 90 % 1017 hPa 0,0 l/m 12,8 km/h (3 Bft) W-SW22.5 255 0 min 10,5 klux 0 min 15,5 C 14,5 C
21.08.2011 08:54 17,4 C 89 % 1017 hPa 0,0 l/m 14,8 km/h (3 Bft) W-SW 250 0 min 11,5 klux 0 min 15,6 C 14,2 C
21.08.2011 09:09 17,9 C 88 % 1018 hPa 0,0 l/m 15,0 km/h (3 Bft) W-SW45 240 0 min 13,0 klux 0 min 15,9 C 14,7 C
21.08.2011 09:24 18,4 C 89 % 1018 hPa 0,0 l/m 15,0 km/h (3 Bft) W-SW22.5 250 0 min 12,5 klux 0 min 16,6 C 15,3 C
21.08.2011 09:39 18,8 C 87 % 1018 hPa 0,0 l/m 13,8 km/h (3 Bft) SW22.5 230 0 min 11,1 klux 0 min 16,6 C 16,1 C
21.08.2011 09:54 19,0 C 87 % 1018 hPa 0,0 l/m 8,3 km/h (2 Bft) S-SW22.5 205 0 min 10,4 klux 0 min 16,8 C 18,2 C
21.08.2011 10:09 19,0 C 88 % 1017 hPa 0,3 l/m 13,0 km/h (3 Bft) S-SW45 205 0 min 9,6 klux 15 min 17,0 C 16,6 C
21.08.2011 10:24 19,1 C 89 % 1017 hPa 0,0 l/m 11,1 km/h (2 Bft) S-SO22.5 165 0 min 11,4 klux 0 min 17,2 C 17,3 C
21.08.2011 10:39 19,4 C 89 % 1017 hPa 0,0 l/m 18,3 km/h (3 Bft) S45 180 0 min 19,9 klux 0 min 17,5 C 15,8 C
21.08.2011 10:54 19,8 C 88 % 1017 hPa 0,0 l/m 19,0 km/h (3 Bft) S-SO45 165 0 min 29,7 klux 0 min 17,8 C 16,1 C
21.08.2011 11:09 20,4 C 87 % 1016 hPa 0,0 l/m 21,8 km/h (4 Bft) S22.5 175 0 min 43,5 klux 0 min 18,2 C 16,4 C
21.08.2011 11:24 21,4 C 84 % 1016 hPa 0,0 l/m 20,6 km/h (4 Bft) S22.5 180 15 min 78,5 klux 0 min 18,6 C 17,9 C
21.08.2011 11:39 23,3 C 81 % 1016 hPa 0,0 l/m 20,5 km/h (4 Bft) S45 170 15 min 92,3 klux 0 min 19,8 C 20,4 C
21.08.2011 12:00 24,6 C 76 % 1016 hPa 0,0 l/m 17,5 km/h (3 Bft) S45 190 21 min 78,5 klux 0 min 20,1 C 22,5 C
21.08.2011 12:15 25,9 C 68 % 1016 hPa 0,0 l/m 14,0 km/h (3 Bft) SW45 215 15 min 93,5 klux 0 min 19,5 C 24,5 C
21.08.2011 12:30 25,3 C 68 % 1016 hPa 0,0 l/m 16,6 km/h (3 Bft) SW67.5 215 0 min 36,5 klux 0 min 19,0 C 23,5 C
21.08.2011 12:45 24,9 C 68 % 1016 hPa 0,0 l/m 25,6 km/h (4 Bft) S45 185 15 min 71,0 klux 0 min 18,6 C 22,0 C
21.08.2011 13:01 24,9 C 69 % 1016 hPa 0,0 l/m 21,8 km/h (4 Bft) S45 170 16 min 80,1 klux 0 min 18,8 C 22,3 C
21.08.2011 13:16 24,9 C 68 % 1016 hPa 0,0 l/m 20,1 km/h (4 Bft) S45 170 15 min 78,2 klux 0 min 18,6 C 22,5 C
21.08.2011 13:30 25,0 C 67 % 1016 hPa 0,0 l/m 24,8 km/h (4 Bft) S45 170 14 min 80,1 klux 0 min 18,4 C 22,2 C
21.08.2011 13:45 25,3 C 66 % 1016 hPa 0,0 l/m 20,9 km/h (4 Bft) S-SW45 195 15 min 90,7 klux 0 min 18,5 C 23,0 C
21.08.2011 14:00 25,5 C 67 % 1016 hPa 0,0 l/m 24,9 km/h (4 Bft) S22.5 170 15 min 106 klux 0 min 18,9 C 22,8 C
21.08.2011 14:15 26,2 C 64 % 1016 hPa 0,0 l/m 29,0 km/h (5 Bft) S45 180 15 min 98,4 klux 0 min 18,8 C 23,5 C
21.08.2011 14:31 25,8 C 62 % 1016 hPa 0,0 l/m 22,9 km/h (4 Bft) S-SW67.5 210 16 min 77,9 klux 0 min 18,0 C 23,4 C
21.08.2011 14:45 25,7 C 63 % 1016 hPa 0,0 l/m 27,3 km/h (4 Bft) SW45 235 14 min 76,0 klux 0 min 18,1 C 22,9 C
21.08.2011 15:00 25,9 C 62 % 1016 hPa 0,0 l/m 28,2 km/h (4 Bft) S45 190 15 min 74,8 klux 0 min 18,0 C 23,1 C
21.08.2011 15:15 26,0 C 63 % 1016 hPa 0,0 l/m 25,6 km/h (4 Bft) S-SW67.5 205 15 min 73,8 klux 0 min 18,4 C 23,5 C
21.08.2011 15:30 26,2 C 64 % 1016 hPa 0,0 l/m 26,3 km/h (4 Bft) W45 260 15 min 75,3 klux 0 min 18,8 C 23,7 C
21.08.2011 15:45 26,4 C 63 % 1016 hPa 0,0 l/m 28,6 km/h (4 Bft) SW67.5 225 15 min 79,8 klux 0 min 18,8 C 23,8 C
21.08.2011 16:01 26,6 C 63 % 1016 hPa 0,0 l/m 28,4 km/h (4 Bft) S67.5 190 16 min 77,6 klux 0 min 19,0 C 24,1 C
21.08.2011 16:15 26,4 C 63 % 1017 hPa 0,0 l/m 27,5 km/h (4 Bft) W-SW45 250 14 min 83,2 klux 0 min 18,8 C 23,9 C
21.08.2011 16:30 25,9 C 65 % 1016 hPa 0,0 l/m 18,9 km/h (3 Bft) W-SW67.5 250 15 min 74,0 klux 0 min 18,8 C 23,9 C
21.08.2011 16:45 25,9 C 65 % 1016 hPa 0,0 l/m 20,3 km/h (4 Bft) S-SW45 205 0 min 55,6 klux 0 min 18,8 C 23,8 C
21.08.2011 17:00 25,9 C 65 % 1016 hPa 0,0 l/m 22,7 km/h (4 Bft) S-SW67.5 205 0 min 46,3 klux 0 min 18,8 C 23,6 C
21.08.2011 17:15 25,9 C 66 % 1016 hPa 0,0 l/m 26,2 km/h (4 Bft) S-SW45 205 15 min 62,5 klux 0 min 19,0 C 23,3 C
21.08.2011 17:31 25,2 C 67 % 1016 hPa 0,0 l/m 18,9 km/h (3 Bft) SW45 215 0 min 21,7 klux 0 min 18,6 C 23,0 C
21.08.2011 17:45 24,7 C 69 % 1016 hPa 0,0 l/m 18,5 km/h (3 Bft) S-SW45 205 0 min 16,1 klux 0 min 18,6 C 22,5 C
21.08.2011 18:00 25,2 C 69 % 1016 hPa 0,0 l/m 22,5 km/h (4 Bft) SW45 215 0 min 57,0 klux 0 min 19,1 C 22,7 C
21.08.2011 18:15 25,7 C 67 % 1016 hPa 0,0 l/m 17,8 km/h (3 Bft) SW45 215 0 min 47,8 klux 0 min 19,1 C 23,8 C
21.08.2011 18:30 24,8 C 68 % 1016 hPa 0,0 l/m 25,5 km/h (4 Bft) W-SW45 250 0 min 33,8 klux 0 min 18,5 C 21,8 C
21.08.2011 18:45 24,6 C 69 % 1016 hPa 0,0 l/m 18,0 km/h (3 Bft) SW22.5 215 0 min 34,7 klux 0 min 18,5 C 22,4 C
21.08.2011 19:01 24,0 C 70 % 1016 hPa 0,0 l/m 15,2 km/h (3 Bft) S-SW22.5 200 0 min 13,2 klux 0 min 18,2 C 22,1 C
21.08.2011 19:15 23,5 C 72 % 1016 hPa 0,0 l/m 10,1 km/h (2 Bft) S-SW22.5 200 0 min 19,1 klux 0 min 18,2 C 22,5 C
21.08.2011 19:30 23,1 C 73 % 1016 hPa 0,0 l/m 16,6 km/h (3 Bft) S-SW22.5 205 0 min 6,27 klux 0 min 18,0 C 20,7 C
21.08.2011 19:45 22,9 C 75 % 1016 hPa 0,0 l/m 17,0 km/h (3 Bft) S-SW45 205 0 min 6,56 klux 0 min 18,2 C 20,4 C
21.08.2011 20:00 22,7 C 76 % 1016 hPa 0,0 l/m 15,1 km/h (3 Bft) SW22.5 215 0 min 6,22 klux 0 min 18,2 C 20,5 C
21.08.2011 20:15 22,6 C 77 % 1016 hPa 0,0 l/m 12,3 km/h (3 Bft) S-SW22.5 205 0 min 5,40 klux 0 min 18,4 C 21,0 C
21.08.2011 20:31 22,2 C 78 % 1016 hPa 0,0 l/m 14,8 km/h (3 Bft) W-SW22.5 245 0 min 3,82 klux 0 min 18,2 C 20,0 C
21.08.2011 20:45 21,8 C 79 % 1016 hPa 0,0 l/m 8,7 km/h (2 Bft) SW22.5 230 0 min 895 lux 0 min 18,0 C 21,0 C
21.08.2011 21:00 21,4 C 80 % 1016 hPa 0,0 l/m 8,3 km/h (2 Bft) SW 215 0 min 257 lux 0 min 17,8 C 20,7 C
21.08.2011 21:15 21,1 C 82 % 1016 hPa 0,0 l/m 8,5 km/h (2 Bft) S-SW 210 0 min 30 lux 0 min 17,9 C 20,3 C
21.08.2011 21:30 20,9 C 83 % 1016 hPa 0,0 l/m 11,5 km/h (2 Bft) SW 215 0 min 4 lux 0 min 17,9 C 19,2 C
21.08.2011 21:45 20,8 C 83 % 1016 hPa 0,0 l/m 8,5 km/h (2 Bft) S-SW 210 0 min 1 lux 0 min 17,8 C 20,0 C
21.08.2011 22:01 20,6 C 85 % 1016 hPa 0,0 l/m 11,3 km/h (2 Bft) S-SW 200 0 min 0 lux 0 min 18,0 C 18,9 C
21.08.2011 22:15 20,6 C 85 % 1016 hPa 0,0 l/m 11,7 km/h (2 Bft) S-SW 205 0 min 0 lux 0 min 18,0 C 18,8 C
21.08.2011 22:30 20,4 C 85 % 1016 hPa 0,0 l/m 7,9 km/h (2 Bft) S-SW22.5 210 0 min 0 lux 0 min 17,8 C 19,8 C
21.08.2011 22:45 20,1 C 85 % 1016 hPa 0,0 l/m 6,4 km/h (2 Bft) W-SW 245 0 min 0 lux 0 min 17,5 C 20,1 C
21.08.2011 23:00 19,8 C 85 % 1016 hPa 0,0 l/m 4,8 km/h (1 Bft) W-SW 245 0 min 0 lux 0 min 17,2 C 19,8 C
21.08.2011 23:15 19,4 C 86 % 1016 hPa 0,0 l/m 2,5 km/h (1 Bft) W-SW 245 0 min 0 lux 0 min 17,0 C 19,4 C
21.08.2011 23:31 19,3 C 87 % 1016 hPa 0,0 l/m 4,2 km/h (1 Bft) W-SW 245 0 min 0 lux 0 min 17,1 C 19,3 C
21.08.2011 23:45 19,1 C 88 % 1016 hPa 0,0 l/m 2,5 km/h (1 Bft) W-SW 245 0 min 0 lux 0 min 17,1 C 19,1 C
21.08.2011 23:54 18,7 C 87 % 1016 hPa 0,0 l/m 0,9 km/h (0 Bft) W-SW 245 0 min 0 lux 0 min 16,5 C 18,7 C
_ Min-Zeit 01:39 14:31 04:09 - 00:09 - - - - - 00:54 01:39
Minimum _ 9,4 C 62 % 1016 hPa - 0,0 km/h (0 Bft) - - - - - 7,0 C 9,4 C
_ Max-Zeit 16:01 07:39 00:09 10:09 14:15 - - 12:00 14:00 10:09 12:00 12:15
Maximum _ 26,6 C 92 % 1019 hPa 0,3 l/m 29,0 km/h
S (5 Bft)
- - 21 min 106 klux 15 min 20,1 C 24,5 C
Durchschnitt _ 18,8 C 80 % 1017 hPa #0,3 l/m 11,7 km/h (2 Bft) S-SW - #5:21 h 24,7 klux #15 min. 15,1 C 17,3 C